createdAt,value
2022-10-24T00:00:11.894Z,13.23
2022-10-24T00:02:40.590Z,13.13
2022-10-24T00:05:14.197Z,13.15
2022-10-24T00:07:43.415Z,13.16
2022-10-24T00:10:14.536Z,13.18
2022-10-24T00:12:43.497Z,13.12
2022-10-24T00:15:13.761Z,13.12
2022-10-24T00:17:42.495Z,13.05
2022-10-24T00:20:12.509Z,12.94
2022-10-24T00:22:41.322Z,12.93
2022-10-24T00:25:10.429Z,12.98
2022-10-24T00:27:39.840Z,12.96
2022-10-24T00:30:10.227Z,12.90
2022-10-24T00:32:38.926Z,12.73
2022-10-24T00:35:08.358Z,12.74
2022-10-24T00:37:36.956Z,12.42
2022-10-24T00:40:08.147Z,12.42
2022-10-24T00:42:37.890Z,12.41
2022-10-24T00:45:50.807Z,12.47
2022-10-24T00:48:43.408Z,12.59
2022-10-24T00:51:29.565Z,12.58
2022-10-24T00:54:05.709Z,12.49
2022-10-24T00:56:55.421Z,12.33
2022-10-24T00:59:25.311Z,12.37
2022-10-24T01:01:54.122Z,12.28
2022-10-24T01:04:23.586Z,12.28
2022-10-24T01:07:56.242Z,12.38
2022-10-24T01:11:06.681Z,12.42
2022-10-24T01:14:32.590Z,12.00
2022-10-24T01:17:45.458Z,11.82
2022-10-24T01:21:09.001Z,11.97
2022-10-24T01:24:14.130Z,12.14
2022-10-24T01:27:06.720Z,12.16
2022-10-24T01:29:56.137Z,12.00
2022-10-24T01:32:39.670Z,12.05
2022-10-24T01:35:40.558Z,12.06
2022-10-24T01:38:52.358Z,12.05
2022-10-24T01:41:28.605Z,12.08
2022-10-24T01:44:07.816Z,12.02
2022-10-24T01:46:55.396Z,12.15
2022-10-24T01:49:32.967Z,12.05
2022-10-24T01:52:08.267Z,11.92
2022-10-24T01:54:39.825Z,11.75
2022-10-24T01:57:09.284Z,11.78
2022-10-24T01:59:48.307Z,11.87
2022-10-24T02:02:33.852Z,11.93
2022-10-24T02:05:36.999Z,12.07
2022-10-24T02:08:13.401Z,12.11
2022-10-24T02:10:53.489Z,12.14
2022-10-24T02:13:53.761Z,12.12
2022-10-24T02:16:22.601Z,12.09
2022-10-24T02:18:55.867Z,12.03
2022-10-24T02:21:53.462Z,11.97
2022-10-24T02:24:31.376Z,11.92
2022-10-24T02:27:16.661Z,11.73
2022-10-24T02:29:59.182Z,11.62
2022-10-24T02:32:36.416Z,11.80
2022-10-24T02:35:09.179Z,11.81
2022-10-24T02:37:49.521Z,11.67
2022-10-24T02:40:21.175Z,11.75
2022-10-24T02:42:55.950Z,11.61
2022-10-24T02:45:25.203Z,11.61
2022-10-24T02:48:03.614Z,11.61
2022-10-24T02:50:33.797Z,11.42
2022-10-24T02:53:02.363Z,11.46
2022-10-24T02:55:32.222Z,11.44
2022-10-24T02:58:01.649Z,11.53
2022-10-24T03:00:30.373Z,11.57
2022-10-24T03:03:00.042Z,11.57
2022-10-24T03:05:28.821Z,11.60
2022-10-24T03:07:58.249Z,11.48
2022-10-24T03:10:27.468Z,11.43
2022-10-24T03:12:56.964Z,11.46
2022-10-24T03:15:25.562Z,11.56
2022-10-24T03:17:54.115Z,11.36
2022-10-24T03:20:24.755Z,11.41
2022-10-24T03:22:53.531Z,11.39
2022-10-24T03:25:23.029Z,11.33
2022-10-24T03:27:51.642Z,11.39
2022-10-24T03:30:20.449Z,11.37
2022-10-24T03:32:49.838Z,11.45
2022-10-24T03:35:18.806Z,11.40
2022-10-24T03:37:48.696Z,11.53
2022-10-24T03:40:18.214Z,11.37
2022-10-24T03:42:47.132Z,11.28
2022-10-24T03:45:16.979Z,11.30
2022-10-24T03:47:46.423Z,11.25
2022-10-24T03:50:15.023Z,11.32
2022-10-24T03:52:44.581Z,11.40
2022-10-24T03:55:14.140Z,11.47
2022-10-24T03:57:43.014Z,11.35
2022-10-24T04:00:13.036Z,11.43
2022-10-24T04:02:43.858Z,11.29
2022-10-24T04:05:14.451Z,11.38
2022-10-24T04:07:44.179Z,11.29
2022-10-24T04:10:13.087Z,11.45
2022-10-24T04:12:42.548Z,11.33
2022-10-24T04:15:11.643Z,11.21
2022-10-24T04:17:42.295Z,11.34
2022-10-24T04:20:11.949Z,11.37
2022-10-24T04:22:41.327Z,11.30
2022-10-24T04:25:10.115Z,11.28
2022-10-24T04:27:40.889Z,11.11
2022-10-24T04:30:16.703Z,11.25
2022-10-24T04:32:46.542Z,11.29
2022-10-24T04:35:16.233Z,11.13
2022-10-24T04:37:45.667Z,11.28
2022-10-24T04:40:14.650Z,11.29
2022-10-24T04:42:43.633Z,11.37
2022-10-24T04:45:12.769Z,11.36
2022-10-24T04:47:42.324Z,11.38
2022-10-24T04:50:11.642Z,11.45
2022-10-24T04:52:40.542Z,11.48
2022-10-24T04:55:10.101Z,11.40
2022-10-24T04:57:39.522Z,11.44
2022-10-24T05:00:09.943Z,11.47
2022-10-24T05:02:38.642Z,11.41
2022-10-24T05:05:08.067Z,11.48
2022-10-24T05:07:37.487Z,11.57
2022-10-24T05:10:07.268Z,11.59
2022-10-24T05:12:36.094Z,11.61
2022-10-24T05:15:07.210Z,11.62
2022-10-24T05:17:36.476Z,11.55
2022-10-24T05:20:07.503Z,11.32
2022-10-24T05:22:36.237Z,11.45
2022-10-24T05:25:07.433Z,11.39
2022-10-24T05:27:36.172Z,11.50
2022-10-24T05:30:06.048Z,11.43
2022-10-24T05:32:38.799Z,11.37
2022-10-24T05:35:09.936Z,11.32
2022-10-24T05:37:39.387Z,11.35
2022-10-24T05:40:11.564Z,11.45
2022-10-24T05:42:40.535Z,11.44
2022-10-24T05:45:12.636Z,11.43
2022-10-24T05:47:41.264Z,11.33
2022-10-24T05:50:11.253Z,11.43
2022-10-24T05:52:46.156Z,11.42
2022-10-24T05:55:18.128Z,11.51
2022-10-24T05:57:48.187Z,11.52
2022-10-24T06:00:19.098Z,11.46
2022-10-24T06:02:47.950Z,11.46
2022-10-24T06:05:17.433Z,11.50
2022-10-24T06:07:47.554Z,11.38
2022-10-24T06:10:17.348Z,11.55
2022-10-24T06:12:48.689Z,11.63
2022-10-24T06:15:17.354Z,11.63
2022-10-24T06:17:46.133Z,11.60
2022-10-24T06:20:15.879Z,11.59
2022-10-24T06:22:46.242Z,11.54
2022-10-24T06:25:15.709Z,11.54
2022-10-24T06:27:43.510Z,11.52
2022-10-24T06:30:13.207Z,11.51
2022-10-24T06:32:44.543Z,11.42
2022-10-24T06:35:14.902Z,11.47
2022-10-24T06:37:47.342Z,11.41
2022-10-24T06:40:18.918Z,11.58
2022-10-24T06:42:47.779Z,11.69
2022-10-24T06:45:18.609Z,11.77
2022-10-24T06:47:51.910Z,11.78
2022-10-24T06:50:22.777Z,11.74
2022-10-24T06:52:52.190Z,11.82
2022-10-24T06:55:21.202Z,11.74
2022-10-24T06:57:50.627Z,11.61
2022-10-24T07:00:19.444Z,11.62
2022-10-24T07:02:48.907Z,11.70
2022-10-24T07:05:18.474Z,11.66
2022-10-24T07:07:47.220Z,11.76
2022-10-24T07:10:16.847Z,11.84
2022-10-24T07:12:45.671Z,11.82
2022-10-24T07:15:15.523Z,11.71
2022-10-24T07:17:46.215Z,11.88
2022-10-24T07:20:15.435Z,11.98
2022-10-24T07:22:55.231Z,11.93
2022-10-24T07:25:23.793Z,11.88
2022-10-24T07:27:54.831Z,11.79
2022-10-24T07:30:23.608Z,11.84
2022-10-24T07:32:53.135Z,11.83
2022-10-24T07:35:21.958Z,11.96
2022-10-24T07:37:52.354Z,12.12
2022-10-24T07:40:22.343Z,12.16
2022-10-24T07:42:50.941Z,12.16
2022-10-24T07:45:19.602Z,12.17
2022-10-24T07:47:51.544Z,12.15
2022-10-24T07:50:21.005Z,12.15
2022-10-24T07:52:49.611Z,12.23
2022-10-24T07:55:24.603Z,12.37
2022-10-24T07:57:53.716Z,12.38
2022-10-24T08:00:22.477Z,12.46
2022-10-24T08:02:52.523Z,12.35
2022-10-24T08:05:22.971Z,12.47
2022-10-24T08:07:56.000Z,12.52
2022-10-24T08:10:34.752Z,12.52
2022-10-24T08:13:04.117Z,12.63
2022-10-24T08:15:32.761Z,12.59
2022-10-24T08:18:05.146Z,12.59
2022-10-24T08:20:34.851Z,12.61
2022-10-24T08:23:04.364Z,12.53
2022-10-24T08:25:32.978Z,12.59
2022-10-24T08:28:05.199Z,12.59
2022-10-24T08:30:38.136Z,12.68
2022-10-24T08:33:07.485Z,12.82
2022-10-24T08:35:36.123Z,12.91
2022-10-24T08:38:07.272Z,12.72
2022-10-24T08:40:38.518Z,12.71
2022-10-24T08:43:12.822Z,13.01
2022-10-24T08:46:37.600Z,13.12
2022-10-24T08:49:51.227Z,13.34
2022-10-24T08:53:07.206Z,13.52
2022-10-24T08:55:55.887Z,13.51
2022-10-24T08:58:44.963Z,13.49
2022-10-24T09:01:39.133Z,13.54
2022-10-24T09:04:13.889Z,13.59
2022-10-24T09:06:44.519Z,13.70
2022-10-24T09:09:49.956Z,13.73
2022-10-24T09:12:24.242Z,13.84
2022-10-24T09:15:00.270Z,13.81
2022-10-24T09:17:35.773Z,13.87
2022-10-24T09:20:25.885Z,13.95
2022-10-24T09:23:00.601Z,14.22
2022-10-24T09:25:35.864Z,14.24
2022-10-24T09:28:07.241Z,14.40
2022-10-24T09:30:39.986Z,14.17
2022-10-24T09:33:36.664Z,14.24
2022-10-24T09:36:08.975Z,14.54
2022-10-24T09:38:41.949Z,14.31
2022-10-24T09:41:29.291Z,14.50
2022-10-24T09:44:01.901Z,14.69
2022-10-24T09:46:45.530Z,15.12
2022-10-24T09:49:17.622Z,14.82
2022-10-24T09:52:14.150Z,14.71
2022-10-24T09:54:44.891Z,14.98
2022-10-24T09:57:17.833Z,15.14
2022-10-24T10:00:00.655Z,14.64
2022-10-24T10:02:34.882Z,14.85
2022-10-24T10:05:03.593Z,14.93
2022-10-24T10:07:48.737Z,14.89
2022-10-24T10:10:35.428Z,15.05
2022-10-24T10:13:24.778Z,15.41
2022-10-24T10:16:02.217Z,15.42
2022-10-24T10:18:39.689Z,15.54
2022-10-24T10:21:17.301Z,15.25
2022-10-24T10:23:57.111Z,15.43
2022-10-24T10:26:48.069Z,15.52
2022-10-24T10:29:19.493Z,15.48
2022-10-24T10:31:59.173Z,15.43
2022-10-24T10:34:50.546Z,15.51
2022-10-24T10:37:35.906Z,15.52
2022-10-24T10:40:46.646Z,15.57
2022-10-24T10:44:22.896Z,15.54
2022-10-24T10:47:04.528Z,15.44
2022-10-24T10:49:40.242Z,15.71
2022-10-24T10:52:48.941Z,15.66
2022-10-24T10:55:47.842Z,15.69
2022-10-24T10:59:08.559Z,15.47
2022-10-24T11:02:13.575Z,15.62
2022-10-24T11:05:17.903Z,15.66
2022-10-24T11:08:19.363Z,15.77
2022-10-24T11:11:00.478Z,15.75
2022-10-24T11:13:51.658Z,15.70
2022-10-24T11:16:31.125Z,15.90
2022-10-24T11:19:29.197Z,15.79
2022-10-24T11:22:04.364Z,15.87
2022-10-24T11:24:47.658Z,15.79
2022-10-24T11:27:34.996Z,15.73
2022-10-24T11:30:17.709Z,15.87
2022-10-24T11:33:07.447Z,16.08
2022-10-24T11:36:13.941Z,16.00
2022-10-24T11:39:00.031Z,16.10
2022-10-24T11:42:26.301Z,15.91
2022-10-24T11:45:14.831Z,15.75
2022-10-24T11:47:56.188Z,15.68
2022-10-24T11:51:46.963Z,15.63
2022-10-24T11:54:43.297Z,15.49
2022-10-24T11:57:22.844Z,15.52
2022-10-24T11:59:56.417Z,15.62
2022-10-24T12:03:08.570Z,15.70
2022-10-24T12:06:41.136Z,15.72
2022-10-24T12:09:30.674Z,15.77
2022-10-24T12:12:16.472Z,15.67
2022-10-24T12:15:32.524Z,15.74
2022-10-24T12:18:38.328Z,15.96
2022-10-24T12:21:21.030Z,15.97
2022-10-24T12:24:01.459Z,15.80
2022-10-24T12:26:36.282Z,15.94
2022-10-24T12:29:07.813Z,15.87
2022-10-24T12:31:38.831Z,15.75
2022-10-24T12:34:16.791Z,15.91
2022-10-24T12:37:12.585Z,15.86
2022-10-24T12:39:49.524Z,16.00
2022-10-24T12:42:38.120Z,15.99
2022-10-24T12:45:08.444Z,16.13
2022-10-24T12:48:04.615Z,16.02
2022-10-24T12:50:36.289Z,16.22
2022-10-24T12:53:37.716Z,16.10
2022-10-24T12:56:12.997Z,16.01
2022-10-24T12:58:44.890Z,15.96
2022-10-24T13:01:37.954Z,15.79
2022-10-24T13:04:47.682Z,15.84
2022-10-24T13:08:03.365Z,15.67
2022-10-24T13:11:22.902Z,15.53
2022-10-24T13:14:15.674Z,15.64
2022-10-24T13:17:40.258Z,15.73
2022-10-24T13:20:35.179Z,15.62
2022-10-24T13:23:15.976Z,15.62
2022-10-24T13:25:44.875Z,15.43
2022-10-24T13:28:20.473Z,15.45
2022-10-24T13:31:16.965Z,15.50
2022-10-24T13:33:47.717Z,15.66
2022-10-24T13:36:28.566Z,15.77
2022-10-24T13:39:06.292Z,15.85
2022-10-24T13:41:48.662Z,15.85
2022-10-24T13:44:51.584Z,16.04
2022-10-24T13:47:32.934Z,16.14
2022-10-24T13:50:19.411Z,16.25
2022-10-24T13:52:56.096Z,16.27
2022-10-24T13:55:41.993Z,16.15
2022-10-24T13:58:15.512Z,16.13
2022-10-24T14:01:01.970Z,16.12
2022-10-24T14:03:34.413Z,15.79
2022-10-24T14:06:10.328Z,15.85
2022-10-24T14:09:02.438Z,16.00
2022-10-24T14:11:45.147Z,16.08
2022-10-24T14:14:33.681Z,15.90
2022-10-24T14:17:33.040Z,15.86
2022-10-24T14:20:33.221Z,15.72
2022-10-24T14:23:31.735Z,15.67
2022-10-24T14:26:22.449Z,15.67
2022-10-24T14:29:01.221Z,15.52
2022-10-24T14:31:37.622Z,15.70
2022-10-24T14:34:20.878Z,15.61
2022-10-24T14:36:50.988Z,15.48
2022-10-24T14:39:26.670Z,15.43
2022-10-24T14:41:58.638Z,15.62
2022-10-24T14:44:29.917Z,15.54
2022-10-24T14:47:32.876Z,15.54
2022-10-24T14:50:02.534Z,15.51
2022-10-24T14:52:37.309Z,15.53
2022-10-24T14:55:23.412Z,15.43
2022-10-24T14:57:55.086Z,15.48
2022-10-24T15:00:28.683Z,15.50
2022-10-24T15:02:59.153Z,15.65
2022-10-24T15:05:34.267Z,15.71
2022-10-24T15:08:27.847Z,15.78
2022-10-24T15:11:25.120Z,15.61
2022-10-24T15:14:06.144Z,15.47
2022-10-24T15:16:39.751Z,15.43
2022-10-24T15:19:16.487Z,15.74
2022-10-24T15:21:48.932Z,15.84
2022-10-24T15:24:26.420Z,15.80
2022-10-24T15:27:26.881Z,15.66
2022-10-24T15:29:55.374Z,15.43
2022-10-24T15:32:26.587Z,15.40
2022-10-24T15:34:56.485Z,15.31
2022-10-24T15:37:26.580Z,15.24
2022-10-24T15:39:56.096Z,15.20
2022-10-24T15:42:25.525Z,15.14
2022-10-24T15:44:54.959Z,15.12
2022-10-24T15:47:24.660Z,15.10
2022-10-24T15:49:53.355Z,15.10
2022-10-24T15:52:22.849Z,15.10
2022-10-24T15:54:52.269Z,15.04
2022-10-24T15:57:21.742Z,15.00
2022-10-24T15:59:51.137Z,15.10
2022-10-24T16:02:26.589Z,15.06
2022-10-24T16:04:56.136Z,14.96
2022-10-24T16:07:25.587Z,15.03
2022-10-24T16:09:54.539Z,14.95
2022-10-24T16:12:26.683Z,15.05
2022-10-24T16:14:58.998Z,14.99
2022-10-24T16:17:28.383Z,15.00
2022-10-24T16:19:57.881Z,15.01
2022-10-24T16:22:27.553Z,14.88
2022-10-24T16:24:57.032Z,14.98
2022-10-24T16:27:24.862Z,15.01
2022-10-24T16:29:54.507Z,15.13
2022-10-24T16:32:23.962Z,14.97
2022-10-24T16:34:52.733Z,14.91
2022-10-24T16:37:22.340Z,14.84
2022-10-24T16:39:51.883Z,14.85
2022-10-24T16:42:22.590Z,14.86
2022-10-24T16:44:55.412Z,14.93
2022-10-24T16:47:23.790Z,14.89
2022-10-24T16:49:58.368Z,14.83
2022-10-24T16:52:29.272Z,14.90
2022-10-24T16:54:58.776Z,14.88
2022-10-24T16:57:30.026Z,14.79
2022-10-24T16:59:58.030Z,14.83
2022-10-24T17:02:25.805Z,14.84
2022-10-24T17:04:58.477Z,14.81
2022-10-24T17:07:28.145Z,14.83
2022-10-24T17:09:55.911Z,14.80
2022-10-24T17:12:27.813Z,14.77
2022-10-24T17:15:05.505Z,14.73
2022-10-24T17:17:37.101Z,14.69
2022-10-24T17:20:07.220Z,14.66
2022-10-24T17:22:44.177Z,14.98
2022-10-24T17:25:28.624Z,15.02
2022-10-24T17:27:58.403Z,15.08
2022-10-24T17:30:31.705Z,14.85
2022-10-24T17:33:01.914Z,14.66
2022-10-24T17:35:30.861Z,14.56
2022-10-24T17:38:42.537Z,14.41
2022-10-24T17:41:30.921Z,14.63
2022-10-24T17:44:01.089Z,14.41
2022-10-24T17:46:29.063Z,14.48
2022-10-24T17:48:58.509Z,14.30
2022-10-24T17:51:28.296Z,14.23
2022-10-24T17:53:57.710Z,14.04
2022-10-24T17:56:26.510Z,14.14
2022-10-24T17:58:55.876Z,14.03
2022-10-24T18:01:25.501Z,13.82
2022-10-24T18:03:55.071Z,13.71
2022-10-24T18:06:24.521Z,13.65
2022-10-24T18:08:56.050Z,13.55
2022-10-24T18:11:25.837Z,13.41
2022-10-24T18:13:54.602Z,13.35
2022-10-24T18:16:25.207Z,13.26
2022-10-24T18:18:57.088Z,13.14
2022-10-24T18:21:28.544Z,13.36
2022-10-24T18:23:58.244Z,13.11
2022-10-24T18:26:28.724Z,13.03
2022-10-24T18:28:58.267Z,13.02
2022-10-24T18:31:30.781Z,12.88
2022-10-24T18:34:04.732Z,12.92
2022-10-24T18:36:37.131Z,12.84
2022-10-24T18:39:07.130Z,12.64
2022-10-24T18:41:48.489Z,12.69
2022-10-24T18:44:30.103Z,12.91
2022-10-24T18:47:07.557Z,12.77
2022-10-24T18:49:36.572Z,12.54
2022-10-24T18:52:51.021Z,12.65
2022-10-24T18:55:28.500Z,12.56
2022-10-24T18:57:59.232Z,12.41
2022-10-24T19:00:32.123Z,12.29
2022-10-24T19:03:24.130Z,12.41
2022-10-24T19:06:19.919Z,12.28
2022-10-24T19:08:49.760Z,12.48
2022-10-24T19:11:19.908Z,12.48
2022-10-24T19:13:49.617Z,12.46
2022-10-24T19:16:30.054Z,12.12
2022-10-24T19:19:03.590Z,12.25
2022-10-24T19:21:31.375Z,12.11
2022-10-24T19:23:59.157Z,12.36
2022-10-24T19:26:28.924Z,12.36
2022-10-24T19:29:01.070Z,12.40
2022-10-24T19:31:31.367Z,12.39
2022-10-24T19:34:00.898Z,12.44
2022-10-24T19:36:30.174Z,12.44
2022-10-24T19:38:58.351Z,12.34
2022-10-24T19:41:28.212Z,12.40
2022-10-24T19:43:56.140Z,12.22
2022-10-24T19:46:23.933Z,12.25
2022-10-24T19:48:53.248Z,12.23
2022-10-24T19:51:25.320Z,12.17
2022-10-24T19:53:55.357Z,12.22
2022-10-24T19:56:28.719Z,12.20
2022-10-24T19:58:58.323Z,12.10
2022-10-24T20:01:30.602Z,12.22
2022-10-24T20:04:00.610Z,12.34
2022-10-24T20:06:28.420Z,12.05
2022-10-24T20:08:58.214Z,12.14
2022-10-24T20:11:25.981Z,12.13
2022-10-24T20:13:55.550Z,12.05
2022-10-24T20:16:23.489Z,11.96
2022-10-24T20:18:53.063Z,12.03
2022-10-24T20:21:22.598Z,12.10
2022-10-24T20:23:51.368Z,11.72
2022-10-24T20:26:26.285Z,11.83
2022-10-24T20:28:58.106Z,11.91
2022-10-24T20:31:38.296Z,11.97
2022-10-24T20:34:10.008Z,11.92
2022-10-24T20:36:48.171Z,11.55
2022-10-24T20:39:21.151Z,11.40
2022-10-24T20:41:53.224Z,11.55
2022-10-24T20:44:23.939Z,11.64
2022-10-24T20:46:55.544Z,11.51
2022-10-24T20:49:25.788Z,11.55
2022-10-24T20:51:53.552Z,11.51
2022-10-24T20:54:23.210Z,11.80
2022-10-24T20:56:52.840Z,11.72
2022-10-24T20:59:23.346Z,11.70
2022-10-24T21:01:51.169Z,11.73
2022-10-24T21:04:21.092Z,11.67
2022-10-24T21:06:50.667Z,11.76
2022-10-24T21:09:18.420Z,11.76
2022-10-24T21:11:46.297Z,11.66
2022-10-24T21:14:16.371Z,11.74
2022-10-24T21:16:44.128Z,11.75
2022-10-24T21:19:14.632Z,12.01
2022-10-24T21:21:45.058Z,12.05
2022-10-24T21:24:18.251Z,12.12
2022-10-24T21:26:48.678Z,12.16
2022-10-24T21:29:32.893Z,12.10
2022-10-24T21:32:03.186Z,12.20
2022-10-24T21:34:34.223Z,12.10
2022-10-24T21:37:05.720Z,12.08
2022-10-24T21:39:35.350Z,12.12
2022-10-24T21:42:05.642Z,12.32
2022-10-24T21:44:35.842Z,12.23
2022-10-24T21:47:05.500Z,12.29
2022-10-24T21:49:33.302Z,12.38
2022-10-24T21:52:03.996Z,12.06
2022-10-24T21:54:34.567Z,12.07
2022-10-24T21:57:02.316Z,12.17
2022-10-24T21:59:30.087Z,12.24
2022-10-24T22:02:00.700Z,12.23
2022-10-24T22:04:30.237Z,12.07
2022-10-24T22:06:57.997Z,12.20
2022-10-24T22:09:27.715Z,12.18
2022-10-24T22:11:58.152Z,12.24
2022-10-24T22:14:26.834Z,12.27
2022-10-24T22:16:56.444Z,12.29
2022-10-24T22:19:26.138Z,12.23
2022-10-24T22:21:53.878Z,12.28
2022-10-24T22:24:24.595Z,12.37
2022-10-24T22:26:54.105Z,12.48
2022-10-24T22:29:24.654Z,12.52
2022-10-24T22:31:55.050Z,12.35
2022-10-24T22:34:26.683Z,12.21
2022-10-24T22:37:29.991Z,12.15
2022-10-24T22:39:59.927Z,12.06
2022-10-24T22:42:27.960Z,12.02
2022-10-24T22:44:57.959Z,12.04
2022-10-24T22:48:07.797Z,11.97
2022-10-24T22:50:49.511Z,11.87
2022-10-24T22:53:31.290Z,11.93
2022-10-24T22:56:22.980Z,11.94
2022-10-24T22:58:53.134Z,12.07
2022-10-24T23:01:51.789Z,12.16
2022-10-24T23:04:42.400Z,12.26
2022-10-24T23:07:48.400Z,12.37
2022-10-24T23:10:23.062Z,12.40
2022-10-24T23:12:53.115Z,12.63
2022-10-24T23:15:23.540Z,12.62
2022-10-24T23:17:52.931Z,12.69
2022-10-24T23:20:43.253Z,12.84
2022-10-24T23:23:28.251Z,12.82
2022-10-24T23:26:32.022Z,12.67
2022-10-24T23:29:10.972Z,12.79
2022-10-24T23:31:40.997Z,12.76
2022-10-24T23:34:11.344Z,12.62
2022-10-24T23:36:45.216Z,12.55
2022-10-24T23:39:15.849Z,12.48
2022-10-24T23:41:45.232Z,12.46
2022-10-24T23:44:14.328Z,12.41
2022-10-24T23:46:55.240Z,12.42
2022-10-24T23:49:47.153Z,12.42
2022-10-24T23:52:33.197Z,12.52
2022-10-24T23:55:03.798Z,12.49
2022-10-24T23:57:33.591Z,12.63
